Merigomish, Canada
Current Conditions -  °F | °C
As of 3:00 PM on Saturday 20 Dec 2014 (Local Time) from CYPD Reporting Station
Overcast Overcast  
Wind Chill: 29°   Ceiling: 2900
Heat Index: 36°   Visibility: 9mi
Dew Point: 27°   Wind: 8mph
Humidity: 70%   Direction: 30°NNE
Pressure: 30.18"   Gusts: NA
Location:  45.62°N, 62.42°W
Report Text: CYPD 201900Z AUTO 03007KT 360V060 9SM OVC029 02/M03 A3018 RMK SLP225
Loading
Personal Weather Stations






























Interactive Weather Map New forecast layout! Learn more

10-Day Weather Forecast

Advertisements
Track Severe Weather on mobile